createdAt,value
2022-11-29T00:01:41.474Z,96839.74
2022-11-29T00:04:10.357Z,96840.07
2022-11-29T00:06:39.243Z,96842.02
2022-11-29T00:09:11.802Z,96841.39
2022-11-29T00:12:00.787Z,96842.52
2022-11-29T00:14:29.724Z,96840.02
2022-11-29T00:17:02.781Z,96842.80
2022-11-29T00:19:33.096Z,96838.90
2022-11-29T00:22:02.117Z,96843.38
2022-11-29T00:24:32.693Z,96846.17
2022-11-29T00:27:01.553Z,96840.73
2022-11-29T00:29:30.450Z,96842.66
2022-11-29T00:31:59.426Z,96837.21
2022-11-29T00:34:28.399Z,96838.02
2022-11-29T00:36:56.688Z,96835.04
2022-11-29T00:39:25.065Z,96835.70
2022-11-29T00:41:53.387Z,96835.44
2022-11-29T00:44:22.009Z,96837.06
2022-11-29T00:46:50.224Z,96837.48
2022-11-29T00:49:18.636Z,96840.13
2022-11-29T00:51:47.728Z,96837.92
2022-11-29T00:54:16.999Z,96836.73
2022-11-29T00:56:45.297Z,96836.90
2022-11-29T00:59:13.571Z,96831.71
2022-11-29T01:01:41.884Z,96829.73
2022-11-29T01:04:10.336Z,96826.55
2022-11-29T01:06:38.716Z,96825.18
2022-11-29T01:09:07.332Z,96827.59
2022-11-29T01:11:35.691Z,96830.34
2022-11-29T01:14:04.727Z,96827.50
2022-11-29T01:16:33.160Z,96829.15
2022-11-29T01:19:01.587Z,96826.17
2022-11-29T01:21:30.954Z,96825.52
2022-11-29T01:24:01.856Z,96821.81
2022-11-29T01:26:30.600Z,96821.34
2022-11-29T01:28:59.740Z,96818.71
2022-11-29T01:31:36.538Z,96814.50
2022-11-29T01:34:06.810Z,96809.06
2022-11-29T01:36:35.836Z,96812.05
2022-11-29T01:39:06.266Z,96804.77
2022-11-29T01:41:36.904Z,96808.02
2022-11-29T01:44:30.954Z,96809.79
2022-11-29T01:46:59.233Z,96807.20
2022-11-29T01:49:39.411Z,96807.08
2022-11-29T01:52:16.806Z,96807.98
2022-11-29T01:54:51.143Z,96807.38
2022-11-29T01:57:21.015Z,96809.92
2022-11-29T01:59:52.696Z,96810.96
2022-11-29T02:02:28.560Z,96806.23
2022-11-29T02:05:00.822Z,96807.50
2022-11-29T02:07:29.145Z,96809.59
2022-11-29T02:09:57.507Z,96809.84
2022-11-29T02:12:49.790Z,96812.86
2022-11-29T02:15:46.562Z,96809.30
2022-11-29T02:18:26.745Z,96809.29
2022-11-29T02:21:04.413Z,96809.90
2022-11-29T02:24:13.735Z,96811.88
2022-11-29T02:27:03.289Z,96808.78
2022-11-29T02:29:57.925Z,96811.42
2022-11-29T02:32:41.544Z,96812.18
2022-11-29T02:35:28.405Z,96809.90
2022-11-29T02:38:06.948Z,96815.01
2022-11-29T02:41:01.218Z,96817.19
2022-11-29T02:43:44.845Z,96817.56
2022-11-29T02:46:29.127Z,96815.10
2022-11-29T02:49:08.621Z,96813.98
2022-11-29T02:51:43.016Z,96814.04
2022-11-29T02:54:27.522Z,96816.71
2022-11-29T02:57:13.317Z,96822.05
2022-11-29T03:00:00.207Z,96824.52
2022-11-29T03:02:31.547Z,96821.50
2022-11-29T03:05:27.739Z,96824.45
2022-11-29T03:08:06.540Z,96823.23
2022-11-29T03:11:04.310Z,96822.27
2022-11-29T03:13:38.354Z,96828.15
2022-11-29T03:16:19.255Z,96828.55
2022-11-29T03:19:12.587Z,96828.33
2022-11-29T03:21:45.694Z,96832.81
2022-11-29T03:24:40.182Z,96834.68
2022-11-29T03:27:25.615Z,96837.40
2022-11-29T03:30:02.645Z,96836.08
2022-11-29T03:32:52.439Z,96836.63
2022-11-29T03:35:30.024Z,96837.19
2022-11-29T03:38:03.339Z,96842.83
2022-11-29T03:41:06.725Z,96849.61
2022-11-29T03:44:10.103Z,96852.32
2022-11-29T03:46:48.030Z,96850.08
2022-11-29T03:49:46.378Z,96850.66
2022-11-29T03:52:52.377Z,96850.45
2022-11-29T03:55:48.814Z,96846.73
2022-11-29T03:58:32.539Z,96846.98
2022-11-29T04:01:22.473Z,96846.50
2022-11-29T04:04:13.496Z,96851.30
2022-11-29T04:07:00.208Z,96851.65
2022-11-29T04:10:06.325Z,96855.78
2022-11-29T04:12:49.229Z,96854.89
2022-11-29T04:15:49.606Z,96852.85
2022-11-29T04:18:55.367Z,96853.94
2022-11-29T04:22:07.870Z,96857.27
2022-11-29T04:25:01.099Z,96858.01
2022-11-29T04:27:41.876Z,96857.66
2022-11-29T04:30:20.693Z,96858.70
2022-11-29T04:33:27.847Z,96855.02
2022-11-29T04:36:14.817Z,96858.41
2022-11-29T04:39:12.406Z,96857.92
2022-11-29T04:42:29.025Z,96859.19
2022-11-29T04:45:35.591Z,96861.81
2022-11-29T04:48:49.059Z,96862.74
2022-11-29T04:51:40.528Z,96860.89
2022-11-29T04:54:22.363Z,96864.66
2022-11-29T04:56:55.276Z,96865.81
2022-11-29T04:59:50.216Z,96868.86
2022-11-29T05:02:51.649Z,96866.32
2022-11-29T05:05:48.190Z,96866.98
2022-11-29T05:08:31.204Z,96868.34
2022-11-29T05:11:11.758Z,96868.98
2022-11-29T05:13:53.343Z,96872.52
2022-11-29T05:16:46.706Z,96872.33
2022-11-29T05:19:30.037Z,96868.84
2022-11-29T05:22:09.397Z,96870.61
2022-11-29T05:24:47.067Z,96879.41
2022-11-29T05:27:21.528Z,96881.77
2022-11-29T05:30:02.429Z,96882.58
2022-11-29T05:32:33.937Z,96882.52
2022-11-29T05:35:18.634Z,96882.33
2022-11-29T05:37:59.911Z,96882.98
2022-11-29T05:40:28.125Z,96882.81
2022-11-29T05:43:02.538Z,96879.90
2022-11-29T05:45:46.957Z,96881.56
2022-11-29T05:48:26.757Z,96885.73
2022-11-29T05:51:22.371Z,96889.77
2022-11-29T05:54:08.568Z,96891.59
2022-11-29T05:56:49.500Z,96891.16
2022-11-29T05:59:30.708Z,96888.66
2022-11-29T06:02:02.095Z,96886.23
2022-11-29T06:04:48.409Z,96890.57
2022-11-29T06:07:24.951Z,96889.02
2022-11-29T06:10:29.885Z,96885.51
2022-11-29T06:13:22.192Z,96887.81
2022-11-29T06:16:02.327Z,96884.73
2022-11-29T06:22:50.801Z,96888.93
2022-11-29T06:25:36.169Z,96889.28
2022-11-29T06:28:05.170Z,96885.70
2022-11-29T06:31:03.668Z,96887.08
2022-11-29T06:33:46.917Z,96887.20
2022-11-29T06:36:31.453Z,96887.48
2022-11-29T06:38:59.982Z,96887.30
2022-11-29T06:41:28.638Z,96885.88
2022-11-29T06:43:57.261Z,96886.69
2022-11-29T06:46:39.483Z,96886.77
2022-11-29T06:49:27.236Z,96882.80
2022-11-29T06:52:25.766Z,96887.92
2022-11-29T06:55:12.561Z,96892.94
2022-11-29T06:58:10.929Z,96890.20
2022-11-29T07:00:48.270Z,96894.21
2022-11-29T07:03:35.550Z,96894.86
2022-11-29T07:06:14.003Z,96892.61
2022-11-29T07:08:43.368Z,96894.20
2022-11-29T07:11:14.470Z,96897.48
2022-11-29T07:13:43.035Z,96894.41
2022-11-29T07:16:57.563Z,96888.86
2022-11-29T07:19:54.485Z,96884.42
2022-11-29T07:22:46.890Z,96882.08
2022-11-29T07:25:21.409Z,96883.65
2022-11-29T07:28:02.693Z,96885.58
2022-11-29T07:30:48.042Z,96889.86
2022-11-29T07:33:30.345Z,96890.08
2022-11-29T07:36:13.982Z,96893.55
2022-11-29T07:39:09.839Z,96894.41
2022-11-29T07:41:55.978Z,96895.67
2022-11-29T07:44:56.336Z,96895.61
2022-11-29T07:47:24.573Z,96899.01
2022-11-29T07:49:52.929Z,96896.14
2022-11-29T07:52:21.175Z,96898.49
2022-11-29T07:54:49.470Z,96898.58
2022-11-29T07:57:17.788Z,96893.04
2022-11-29T07:59:46.242Z,96890.33
2022-11-29T08:02:14.728Z,96888.65
2022-11-29T08:04:46.986Z,96885.73
2022-11-29T08:07:15.550Z,96884.30
2022-11-29T08:09:44.279Z,96883.39
2022-11-29T08:12:12.793Z,96882.02
2022-11-29T08:14:41.053Z,96880.52
2022-11-29T08:17:09.746Z,96885.38
2022-11-29T08:19:38.227Z,96883.52
2022-11-29T08:22:06.618Z,96884.40
2022-11-29T08:24:34.877Z,96881.45
2022-11-29T08:27:03.228Z,96882.92
2022-11-29T08:29:31.508Z,96885.34
2022-11-29T08:31:59.807Z,96888.52
2022-11-29T08:34:28.380Z,96884.57
2022-11-29T08:36:56.815Z,96882.33
2022-11-29T08:39:25.189Z,96881.55
2022-11-29T08:41:53.526Z,96876.91
2022-11-29T08:44:21.877Z,96873.16
2022-11-29T08:47:08.779Z,96868.25
2022-11-29T08:49:56.985Z,96866.78
2022-11-29T08:52:44.033Z,96867.45
2022-11-29T08:55:12.326Z,96861.70
2022-11-29T08:57:41.268Z,96864.34
2022-11-29T09:00:11.043Z,96860.27
2022-11-29T09:02:39.958Z,96856.95
2022-11-29T09:05:10.343Z,96854.53
2022-11-29T09:07:39.221Z,96846.18
2022-11-29T09:10:09.223Z,96850.34
2022-11-29T09:12:39.593Z,96847.68
2022-11-29T09:15:10.876Z,96846.89
2022-11-29T09:17:39.164Z,96844.67
2022-11-29T09:20:08.487Z,96846.61
2022-11-29T09:22:36.742Z,96841.58
2022-11-29T09:25:05.490Z,96836.77
2022-11-29T09:27:33.746Z,96839.98
2022-11-29T09:30:02.040Z,96842.97
2022-11-29T09:32:31.624Z,96839.50
2022-11-29T09:34:59.857Z,96840.86
2022-11-29T09:37:28.156Z,96843.91
2022-11-29T09:39:56.399Z,96843.83
2022-11-29T09:42:30.562Z,96846.59
2022-11-29T09:45:07.382Z,96843.72
2022-11-29T09:48:21.220Z,96850.23
2022-11-29T09:51:15.700Z,96847.48
2022-11-29T09:54:22.863Z,96852.08
2022-11-29T09:56:52.939Z,96850.19
2022-11-29T09:59:29.169Z,96846.41
2022-11-29T10:02:21.428Z,96845.55
2022-11-29T10:04:59.377Z,96841.55
2022-11-29T10:07:39.721Z,96839.58
2022-11-29T10:10:17.413Z,96840.73
2022-11-29T10:13:05.132Z,96836.75
2022-11-29T10:15:40.225Z,96838.39
2022-11-29T10:18:32.604Z,96837.08
2022-11-29T10:21:11.823Z,96838.36
2022-11-29T10:23:56.611Z,96836.38
2022-11-29T10:26:28.185Z,96833.51
2022-11-29T10:28:59.830Z,96830.23
2022-11-29T10:31:33.361Z,96824.75
2022-11-29T10:34:08.223Z,96820.21
2022-11-29T10:36:41.874Z,96821.14
2022-11-29T10:39:37.490Z,96821.73
2022-11-29T10:42:33.032Z,96823.51
2022-11-29T10:45:02.330Z,96820.63
2022-11-29T10:47:32.208Z,96812.20
2022-11-29T10:50:00.498Z,96810.30
2022-11-29T10:52:28.715Z,96805.14
2022-11-29T10:55:00.318Z,96803.27
2022-11-29T10:57:28.873Z,96804.95
2022-11-29T11:00:08.285Z,96804.58
2022-11-29T11:02:38.210Z,96804.04
2022-11-29T11:05:19.061Z,96804.84
2022-11-29T11:07:57.663Z,96803.66
2022-11-29T11:10:31.018Z,96801.09
2022-11-29T11:13:19.448Z,96801.27
2022-11-29T11:15:48.305Z,96801.20
2022-11-29T11:18:22.927Z,96801.77
2022-11-29T11:20:58.660Z,96796.64
2022-11-29T11:23:30.944Z,96797.33
2022-11-29T11:26:08.229Z,96796.56
2022-11-29T11:28:48.331Z,96788.79
2022-11-29T11:31:38.194Z,96792.66
2022-11-29T11:34:30.101Z,96791.19
2022-11-29T11:37:36.989Z,96790.19
2022-11-29T11:40:29.883Z,96793.67
2022-11-29T11:43:02.006Z,96785.90
2022-11-29T11:45:35.165Z,96784.11
2022-11-29T11:48:13.904Z,96784.48
2022-11-29T11:50:49.672Z,96783.70
2022-11-29T11:53:33.679Z,96784.80
2022-11-29T11:56:10.698Z,96784.31
2022-11-29T11:58:52.393Z,96787.93
2022-11-29T12:01:37.055Z,96783.21
2022-11-29T12:04:20.591Z,96783.04
2022-11-29T12:07:05.624Z,96775.52
2022-11-29T12:09:42.335Z,96779.31
2022-11-29T12:12:30.169Z,96776.38
2022-11-29T12:15:05.632Z,96773.14
2022-11-29T12:17:42.003Z,96774.15
2022-11-29T12:20:24.335Z,96773.35
2022-11-29T12:22:55.392Z,96771.38
2022-11-29T12:25:34.202Z,96768.98
2022-11-29T12:28:02.497Z,96765.27
2022-11-29T12:30:32.195Z,96768.53
2022-11-29T12:33:05.944Z,96771.36
2022-11-29T12:35:48.247Z,96772.36
2022-11-29T12:38:31.754Z,96773.14
2022-11-29T12:41:25.813Z,96772.61
2022-11-29T12:44:35.618Z,96776.84
2022-11-29T12:47:36.533Z,96776.77
2022-11-29T12:50:35.978Z,96775.40
2022-11-29T12:53:32.787Z,96779.28
2022-11-29T12:56:22.313Z,96781.44
2022-11-29T12:59:17.633Z,96782.56
2022-11-29T13:01:48.772Z,96785.81
2022-11-29T13:04:46.021Z,96779.67
2022-11-29T13:07:26.886Z,96784.70
2022-11-29T13:10:43.479Z,96787.41
2022-11-29T13:13:15.090Z,96788.17
2022-11-29T13:16:30.684Z,96794.00
2022-11-29T13:19:43.245Z,96792.83
2022-11-29T13:22:17.481Z,96798.08
2022-11-29T13:24:51.923Z,96794.52
2022-11-29T13:27:35.171Z,96796.08
2022-11-29T13:30:05.220Z,96799.05
2022-11-29T13:32:59.927Z,96802.65
2022-11-29T13:35:50.268Z,96806.39
2022-11-29T13:38:21.594Z,96811.91
2022-11-29T13:40:49.789Z,96813.80
2022-11-29T13:43:48.841Z,96810.94
2022-11-29T13:46:38.754Z,96812.07
2022-11-29T13:49:21.220Z,96815.20
2022-11-29T13:52:04.803Z,96814.06
2022-11-29T13:54:34.613Z,96817.45
2022-11-29T13:57:09.298Z,96811.60
2022-11-29T13:59:45.794Z,96814.71
2022-11-29T14:02:30.495Z,96813.15
2022-11-29T14:04:59.351Z,96809.31
2022-11-29T14:07:27.765Z,96810.13
2022-11-29T14:10:26.385Z,96808.33
2022-11-29T14:12:57.817Z,96807.52
2022-11-29T14:15:29.554Z,96809.27
2022-11-29T14:18:01.416Z,96814.08
2022-11-29T14:20:29.917Z,96813.80
2022-11-29T14:23:07.887Z,96814.75
2022-11-29T14:26:03.878Z,96815.02
2022-11-29T14:28:34.668Z,96815.89
2022-11-29T14:31:04.962Z,96821.09
2022-11-29T14:34:07.160Z,96814.89
2022-11-29T14:36:47.801Z,96813.17
2022-11-29T14:39:47.220Z,96815.02
2022-11-29T14:42:22.158Z,96814.64
2022-11-29T14:44:58.431Z,96813.46
2022-11-29T14:47:30.014Z,96816.56
2022-11-29T14:50:01.872Z,96814.96
2022-11-29T14:52:38.846Z,96811.46
2022-11-29T14:55:29.828Z,96809.20
2022-11-29T14:58:01.275Z,96812.33
2022-11-29T15:00:36.567Z,96813.38
2022-11-29T15:03:31.276Z,96818.88
2022-11-29T15:06:08.758Z,96821.05
2022-11-29T15:09:02.144Z,96821.02
2022-11-29T15:11:50.426Z,96822.88
2022-11-29T15:14:28.108Z,96823.55
2022-11-29T15:17:20.001Z,96821.30
2022-11-29T15:20:23.714Z,96825.63
2022-11-29T15:22:58.405Z,96828.36
2022-11-29T15:25:32.149Z,96828.84
2022-11-29T15:28:06.117Z,96826.46
2022-11-29T15:30:36.329Z,96823.89
2022-11-29T15:33:07.668Z,96823.44
2022-11-29T15:35:37.206Z,96827.99
2022-11-29T15:38:05.547Z,96834.78
2022-11-29T15:40:39.150Z,96834.27
2022-11-29T15:43:25.839Z,96836.59
2022-11-29T15:45:55.773Z,96835.55
2022-11-29T15:48:27.130Z,96835.98
2022-11-29T15:51:04.912Z,96842.79
2022-11-29T15:53:47.286Z,96843.98
2022-11-29T15:56:35.427Z,96851.44
2022-11-29T15:59:12.982Z,96849.73
2022-11-29T16:01:46.781Z,96846.84
2022-11-29T16:04:21.750Z,96853.20
2022-11-29T16:06:52.050Z,96859.65
2022-11-29T16:09:29.988Z,96864.52
2022-11-29T16:12:00.571Z,96872.27
2022-11-29T16:14:29.628Z,96874.34
2022-11-29T16:17:01.048Z,96872.36
2022-11-29T16:19:38.275Z,96873.41
2022-11-29T16:22:12.727Z,96875.83
2022-11-29T16:25:15.639Z,96878.73
2022-11-29T16:27:44.144Z,96878.67
2022-11-29T16:30:24.911Z,96879.52
2022-11-29T16:32:57.943Z,96877.35
2022-11-29T16:35:33.395Z,96880.64
2022-11-29T16:38:04.789Z,96881.88
2022-11-29T16:40:35.582Z,96884.11
2022-11-29T16:43:03.863Z,96890.17
2022-11-29T16:45:35.125Z,96891.17
2022-11-29T16:48:15.576Z,96891.36
2022-11-29T16:50:43.967Z,96891.65
2022-11-29T16:53:39.690Z,96891.45
2022-11-29T16:56:13.523Z,96890.67
2022-11-29T16:59:17.268Z,96892.29
2022-11-29T17:01:31.907Z,96891.61
2022-11-29T17:04:00.949Z,96888.59
2022-11-29T17:06:30.249Z,96884.02
2022-11-29T17:08:59.631Z,96886.42
2022-11-29T17:11:27.994Z,96885.02
2022-11-29T17:13:56.430Z,96883.98
2022-11-29T17:16:25.296Z,96894.00
2022-11-29T17:18:54.002Z,96894.60
2022-11-29T17:21:24.876Z,96892.00
2022-11-29T17:23:53.918Z,96891.88
2022-11-29T17:26:22.457Z,96891.63
2022-11-29T17:28:52.427Z,96892.73
2022-11-29T17:31:23.659Z,96893.56
2022-11-29T17:33:52.615Z,96895.02
2022-11-29T17:36:22.028Z,96891.63
2022-11-29T17:38:50.447Z,96889.02
2022-11-29T17:41:22.713Z,96894.05
2022-11-29T17:43:52.362Z,96893.87
2022-11-29T17:46:27.153Z,96889.48
2022-11-29T17:48:56.549Z,96893.02
2022-11-29T17:54:13.612Z,96889.24
2022-11-29T17:56:41.851Z,96894.00
2022-11-29T17:59:10.218Z,96896.91
2022-11-29T18:01:38.626Z,96898.40
2022-11-29T18:04:08.612Z,96904.03
2022-11-29T18:06:39.526Z,96905.08
2022-11-29T18:09:08.819Z,96903.09
2022-11-29T18:11:47.701Z,96904.70
2022-11-29T18:14:20.794Z,96904.06
2022-11-29T18:16:49.562Z,96899.77
2022-11-29T18:19:20.655Z,96904.14
2022-11-29T18:21:49.794Z,96906.86
2022-11-29T18:24:18.721Z,96907.59
2022-11-29T18:26:47.532Z,96908.85
2022-11-29T18:29:16.027Z,96900.45
2022-11-29T18:31:46.203Z,96898.42
2022-11-29T18:34:15.478Z,96899.23
2022-11-29T18:36:46.689Z,96903.70
2022-11-29T18:39:17.805Z,96907.64
2022-11-29T18:41:49.070Z,96909.23
2022-11-29T18:44:20.477Z,96908.55
2022-11-29T18:46:49.359Z,96906.52
2022-11-29T18:49:18.579Z,96906.88
2022-11-29T18:51:47.713Z,96905.98
2022-11-29T18:54:19.070Z,96906.39
2022-11-29T18:56:50.314Z,96903.31
2022-11-29T18:59:18.648Z,96900.34
2022-11-29T19:01:48.673Z,96901.15
2022-11-29T19:04:21.294Z,96901.95
2022-11-29T19:06:49.815Z,96898.93
2022-11-29T19:09:22.261Z,96900.94
2022-11-29T19:11:51.454Z,96899.48
2022-11-29T19:14:19.969Z,96904.02
2022-11-29T19:16:50.325Z,96909.38
2022-11-29T19:19:19.151Z,96910.47
2022-11-29T19:21:48.074Z,96906.55
2022-11-29T19:24:18.357Z,96909.42
2022-11-29T19:26:49.983Z,96913.33
2022-11-29T19:29:18.719Z,96912.60
2022-11-29T19:31:47.084Z,96917.00
2022-11-29T19:34:15.476Z,96918.55
2022-11-29T19:36:45.352Z,96920.73
2022-11-29T19:39:16.101Z,96921.27
2022-11-29T19:41:46.891Z,96921.53
2022-11-29T19:44:15.569Z,96923.77
2022-11-29T19:46:48.452Z,96922.16
2022-11-29T19:49:16.929Z,96924.58
2022-11-29T19:51:48.186Z,96928.06
2022-11-29T19:54:16.546Z,96926.83
2022-11-29T19:56:44.873Z,96927.58
2022-11-29T19:59:13.577Z,96927.38
2022-11-29T20:01:43.025Z,96922.44
2022-11-29T20:04:13.925Z,96925.08
2022-11-29T20:06:44.540Z,96927.06
2022-11-29T20:09:14.281Z,96925.48
2022-11-29T20:11:42.713Z,96922.30
2022-11-29T20:14:12.586Z,96923.68
2022-11-29T20:16:41.765Z,96920.10
2022-11-29T20:19:12.544Z,96916.39
2022-11-29T20:21:49.051Z,96913.14
2022-11-29T20:24:19.582Z,96912.13
2022-11-29T20:26:48.785Z,96913.65
2022-11-29T20:29:18.080Z,96915.66
2022-11-29T20:31:50.822Z,96913.95
2022-11-29T20:34:20.087Z,96917.70
2022-11-29T20:37:10.319Z,96920.23
2022-11-29T20:39:52.457Z,96925.95
2022-11-29T20:42:45.276Z,96921.11
2022-11-29T20:45:15.049Z,96915.80
2022-11-29T20:47:46.781Z,96914.92
2022-11-29T20:50:23.138Z,96918.89
2022-11-29T20:53:01.468Z,96914.56
2022-11-29T20:55:30.744Z,96918.05
2022-11-29T20:58:00.560Z,96916.58
2022-11-29T21:00:28.888Z,96913.08
2022-11-29T21:03:03.345Z,96916.31
2022-11-29T21:05:42.032Z,96916.83
2022-11-29T21:08:19.426Z,96912.31
2022-11-29T21:10:49.466Z,96908.54
2022-11-29T21:13:20.474Z,96909.42
2022-11-29T21:15:49.133Z,96908.36
2022-11-29T21:18:22.888Z,96914.61
2022-11-29T21:21:21.870Z,96913.15
2022-11-29T21:24:10.778Z,96914.13
2022-11-29T21:26:54.667Z,96915.38
2022-11-29T21:29:23.797Z,96918.34
2022-11-29T21:31:54.270Z,96914.60
2022-11-29T21:34:22.561Z,96919.09
2022-11-29T21:36:57.136Z,96917.43
2022-11-29T21:39:35.100Z,96913.40
2022-11-29T21:42:05.945Z,96910.63
2022-11-29T21:44:34.180Z,96914.42
2022-11-29T21:47:06.155Z,96911.08
2022-11-29T21:49:37.108Z,96914.64
2022-11-29T21:52:22.275Z,96912.91
2022-11-29T21:54:54.379Z,96907.47
2022-11-29T21:57:25.792Z,96908.66
2022-11-29T21:59:54.234Z,96909.55
2022-11-29T22:02:22.686Z,96909.46
2022-11-29T22:04:51.004Z,96911.39
2022-11-29T22:07:26.043Z,96909.27
2022-11-29T22:09:56.870Z,96913.41
2022-11-29T22:12:52.344Z,96914.09
2022-11-29T22:15:24.788Z,96916.48
2022-11-29T22:18:05.665Z,96911.92
2022-11-29T22:20:47.494Z,96914.02
2022-11-29T22:23:28.974Z,96908.42
2022-11-29T22:26:05.803Z,96906.61
2022-11-29T22:28:38.348Z,96909.73
2022-11-29T22:31:11.108Z,96908.04
2022-11-29T22:33:49.382Z,96903.81
2022-11-29T22:36:22.159Z,96905.56
2022-11-29T22:38:50.480Z,96902.89
2022-11-29T22:41:18.730Z,96898.54
2022-11-29T22:43:52.049Z,96894.50
2022-11-29T22:46:25.317Z,96894.53
2022-11-29T22:49:00.708Z,96897.44
2022-11-29T22:51:33.024Z,96894.39
2022-11-29T22:54:03.980Z,96895.61
2022-11-29T22:56:33.456Z,96893.23
2022-11-29T22:59:01.976Z,96890.06
2022-11-29T23:01:32.690Z,96887.59
2022-11-29T23:04:04.289Z,96889.80
2022-11-29T23:06:37.967Z,96886.77
2022-11-29T23:09:10.831Z,96883.91
2022-11-29T23:11:39.454Z,96882.46
2022-11-29T23:14:07.750Z,96881.66
2022-11-29T23:16:36.437Z,96879.55
2022-11-29T23:19:04.921Z,96885.10
2022-11-29T23:21:36.087Z,96887.09
2022-11-29T23:24:05.114Z,96888.61
2022-11-29T23:26:39.730Z,96887.66
2022-11-29T23:29:11.225Z,96885.81
2022-11-29T23:31:40.567Z,96884.96
2022-11-29T23:34:09.650Z,96885.54
2022-11-29T23:36:37.981Z,96887.06
2022-11-29T23:39:07.348Z,96886.81
2022-11-29T23:41:38.620Z,96883.21
2022-11-29T23:44:08.823Z,96881.38
2022-11-29T23:46:37.178Z,96880.70
2022-11-29T23:49:05.457Z,96883.36
2022-11-29T23:51:33.741Z,96881.38
2022-11-29T23:54:01.998Z,96880.44
2022-11-29T23:56:35.493Z,96880.70
2022-11-29T23:59:04.237Z,96881.84
